sensor_id;sensor_type;location;lat;lon;timestamp;P1;durP1;ratioP1;P2;durP2;ratioP2
8331;SDS011;4203;48.144;14.118;2022-09-13T00:02:19;6.15;;;5.65;;
8331;SDS011;4203;48.144;14.118;2022-09-13T00:04:48;6.55;;;5.85;;
8331;SDS011;4203;48.144;14.118;2022-09-13T00:07:15;7.70;;;6.22;;
8331;SDS011;4203;48.144;14.118;2022-09-13T00:09:42;7.40;;;6.07;;
8331;SDS011;4203;48.144;14.118;2022-09-13T00:12:09;6.53;;;6.03;;
8331;SDS011;4203;48.144;14.118;2022-09-13T00:14:36;6.70;;;6.10;;
8331;SDS011;4203;48.144;14.118;2022-09-13T00:17:04;7.78;;;6.13;;
8331;SDS011;4203;48.144;14.118;2022-09-13T00:19:31;5.93;;;5.43;;
8331;SDS011;4203;48.144;14.118;2022-09-13T00:22:00;6.53;;;5.93;;
8331;SDS011;4203;48.144;14.118;2022-09-13T00:24:27;6.43;;;5.95;;
8331;SDS011;4203;48.144;14.118;2022-09-13T00:26:54;8.35;;;5.88;;
8331;SDS011;4203;48.144;14.118;2022-09-13T00:29:21;6.72;;;6.20;;
8331;SDS011;4203;48.144;14.118;2022-09-13T00:31:48;7.25;;;5.72;;
8331;SDS011;4203;48.144;14.118;2022-09-13T00:34:15;6.07;;;5.47;;
8331;SDS011;4203;48.144;14.118;2022-09-13T00:36:43;6.15;;;5.63;;
8331;SDS011;4203;48.144;14.118;2022-09-13T00:39:11;6.32;;;5.82;;
8331;SDS011;4203;48.144;14.118;2022-09-13T00:41:38;11.63;;;6.45;;
8331;SDS011;4203;48.144;14.118;2022-09-13T00:47:06;7.57;;;6.50;;
8331;SDS011;4203;48.144;14.118;2022-09-13T00:49:35;6.20;;;5.70;;
8331;SDS011;4203;48.144;14.118;2022-09-13T00:52:06;6.88;;;6.18;;
8331;SDS011;4203;48.144;14.118;2022-09-13T00:54:38;9.05;;;6.65;;
8331;SDS011;4203;48.144;14.118;2022-09-13T00:57:09;6.93;;;6.35;;
8331;SDS011;4203;48.144;14.118;2022-09-13T00:59:39;7.00;;;6.43;;
8331;SDS011;4203;48.144;14.118;2022-09-13T01:02:09;6.63;;;5.75;;
8331;SDS011;4203;48.144;14.118;2022-09-13T01:04:37;6.32;;;5.75;;
8331;SDS011;4203;48.144;14.118;2022-09-13T01:07:05;9.00;;;5.63;;
8331;SDS011;4203;48.144;14.118;2022-09-13T01:09:35;6.30;;;5.70;;
8331;SDS011;4203;48.144;14.118;2022-09-13T01:12:11;6.28;;;5.75;;
8331;SDS011;4203;48.144;14.118;2022-09-13T01:14:45;6.00;;;5.50;;
8331;SDS011;4203;48.144;14.118;2022-09-13T01:17:13;7.20;;;5.78;;
8331;SDS011;4203;48.144;14.118;2022-09-13T01:19:40;6.20;;;5.70;;
8331;SDS011;4203;48.144;14.118;2022-09-13T01:28:11;5.80;;;5.30;;
8331;SDS011;4203;48.144;14.118;2022-09-13T01:30:54;6.75;;;6.15;;
8331;SDS011;4203;48.144;14.118;2022-09-13T01:33:34;6.40;;;5.15;;
8331;SDS011;4203;48.144;14.118;2022-09-13T01:36:25;7.35;;;5.97;;
8331;SDS011;4203;48.144;14.118;2022-09-13T01:39:02;7.32;;;6.20;;
8331;SDS011;4203;48.144;14.118;2022-09-13T01:41:44;6.23;;;5.63;;
8331;SDS011;4203;48.144;14.118;2022-09-13T01:44:32;6.57;;;5.70;;
8331;SDS011;4203;48.144;14.118;2022-09-13T01:47:12;8.02;;;6.40;;
8331;SDS011;4203;48.144;14.118;2022-09-13T01:49:45;6.22;;;5.72;;
8331;SDS011;4203;48.144;14.118;2022-09-13T01:52:17;5.78;;;5.35;;
8331;SDS011;4203;48.144;14.118;2022-09-13T01:54:52;7.10;;;5.82;;
8331;SDS011;4203;48.144;14.118;2022-09-13T01:57:27;5.82;;;5.38;;
8331;SDS011;4203;48.144;14.118;2022-09-13T01:59:59;9.57;;;6.07;;
8331;SDS011;4203;48.144;14.118;2022-09-13T02:02:33;6.57;;;5.63;;
8331;SDS011;4203;48.144;14.118;2022-09-13T02:05:08;8.35;;;5.50;;
8331;SDS011;4203;48.144;14.118;2022-09-13T02:07:43;5.77;;;5.20;;
8331;SDS011;4203;48.144;14.118;2022-09-13T02:10:19;5.88;;;5.38;;
8331;SDS011;4203;48.144;14.118;2022-09-13T02:12:49;6.50;;;5.97;;
8331;SDS011;4203;48.144;14.118;2022-09-13T02:15:20;7.43;;;5.55;;
8331;SDS011;4203;48.144;14.118;2022-09-13T02:17:53;6.78;;;5.82;;
8331;SDS011;4203;48.144;14.118;2022-09-13T02:20:27;5.57;;;5.17;;
8331;SDS011;4203;48.144;14.118;2022-09-13T02:22:58;6.32;;;5.72;;
8331;SDS011;4203;48.144;14.118;2022-09-13T02:25:29;5.72;;;5.30;;
8331;SDS011;4203;48.144;14.118;2022-09-13T02:27:59;6.13;;;5.63;;
8331;SDS011;4203;48.144;14.118;2022-09-13T02:30:29;7.17;;;5.57;;
8331;SDS011;4203;48.144;14.118;2022-09-13T02:33:00;6.40;;;5.83;;
8331;SDS011;4203;48.144;14.118;2022-09-13T02:35:34;5.87;;;5.37;;
8331;SDS011;4203;48.144;14.118;2022-09-13T02:38:07;7.90;;;5.65;;
8331;SDS011;4203;48.144;14.118;2022-09-13T02:40:38;6.63;;;5.50;;
8331;SDS011;4203;48.144;14.118;2022-09-13T02:43:09;5.70;;;5.20;;
8331;SDS011;4203;48.144;14.118;2022-09-13T02:45:41;6.83;;;5.07;;
8331;SDS011;4203;48.144;14.118;2022-09-13T02:48:16;6.50;;;6.00;;
8331;SDS011;4203;48.144;14.118;2022-09-13T02:50:51;7.28;;;5.43;;
8331;SDS011;4203;48.144;14.118;2022-09-13T02:53:26;5.93;;;5.13;;
8331;SDS011;4203;48.144;14.118;2022-09-13T02:56:03;8.53;;;5.53;;
8331;SDS011;4203;48.144;14.118;2022-09-13T02:58:38;5.37;;;4.97;;
8331;SDS011;4203;48.144;14.118;2022-09-13T03:01:12;6.70;;;4.78;;
8331;SDS011;4203;48.144;14.118;2022-09-13T03:03:41;9.57;;;5.03;;
8331;SDS011;4203;48.144;14.118;2022-09-13T03:06:09;4.93;;;4.63;;
8331;SDS011;4203;48.144;14.118;2022-09-13T03:08:36;5.00;;;4.60;;
8331;SDS011;4203;48.144;14.118;2022-09-13T03:11:06;6.53;;;5.03;;
8331;SDS011;4203;48.144;14.118;2022-09-13T03:13:47;6.70;;;4.83;;
8331;SDS011;4203;48.144;14.118;2022-09-13T03:16:28;5.63;;;4.57;;
8331;SDS011;4203;48.144;14.118;2022-09-13T03:19:16;4.80;;;4.43;;
8331;SDS011;4203;48.144;14.118;2022-09-13T03:21:57;5.77;;;4.83;;
8331;SDS011;4203;48.144;14.118;2022-09-13T03:24:36;6.80;;;5.00;;
8331;SDS011;4203;48.144;14.118;2022-09-13T03:27:15;6.57;;;4.93;;
8331;SDS011;4203;48.144;14.118;2022-09-13T03:29:49;5.10;;;4.73;;
8331;SDS011;4203;48.144;14.118;2022-09-13T03:32:23;5.03;;;4.50;;
8331;SDS011;4203;48.144;14.118;2022-09-13T03:35:01;5.90;;;5.40;;
8331;SDS011;4203;48.144;14.118;2022-09-13T03:37:35;5.70;;;5.30;;
8331;SDS011;4203;48.144;14.118;2022-09-13T03:40:11;5.53;;;5.07;;
8331;SDS011;4203;48.144;14.118;2022-09-13T03:42:41;6.70;;;6.10;;
8331;SDS011;4203;48.144;14.118;2022-09-13T03:45:12;6.07;;;5.57;;
8331;SDS011;4203;48.144;14.118;2022-09-13T03:47:41;7.03;;;5.60;;
8331;SDS011;4203;48.144;14.118;2022-09-13T03:50:14;6.00;;;5.20;;
8331;SDS011;4203;48.144;14.118;2022-09-13T03:52:44;6.73;;;5.00;;
8331;SDS011;4203;48.144;14.118;2022-09-13T03:55:16;5.80;;;5.30;;
8331;SDS011;4203;48.144;14.118;2022-09-13T03:57:44;28.63;;;6.90;;
8331;SDS011;4203;48.144;14.118;2022-09-13T04:00:11;20.00;;;7.10;;
8331;SDS011;4203;48.144;14.118;2022-09-13T04:02:42;16.70;;;6.23;;
8331;SDS011;4203;48.144;14.118;2022-09-13T04:05:09;15.77;;;7.40;;
8331;SDS011;4203;48.144;14.118;2022-09-13T04:07:38;8.57;;;7.07;;
8331;SDS011;4203;48.144;14.118;2022-09-13T04:10:06;16.33;;;7.00;;
8331;SDS011;4203;48.144;14.118;2022-09-13T04:12:34;8.80;;;7.13;;
8331;SDS011;4203;48.144;14.118;2022-09-13T04:15:02;23.90;;;7.43;;
8331;SDS011;4203;48.144;14.118;2022-09-13T04:17:29;17.17;;;8.40;;
8331;SDS011;4203;48.144;14.118;2022-09-13T04:19:56;9.23;;;7.30;;
8331;SDS011;4203;48.144;14.118;2022-09-13T04:22:25;18.30;;;8.60;;
8331;SDS011;4203;48.144;14.118;2022-09-13T04:24:53;11.83;;;7.57;;
8331;SDS011;4203;48.144;14.118;2022-09-13T04:27:20;12.67;;;7.97;;
8331;SDS011;4203;48.144;14.118;2022-09-13T04:29:48;24.47;;;8.50;;
8331;SDS011;4203;48.144;14.118;2022-09-13T04:32:15;12.37;;;7.93;;
8331;SDS011;4203;48.144;14.118;2022-09-13T04:34:42;11.30;;;8.20;;
8331;SDS011;4203;48.144;14.118;2022-09-13T04:37:11;12.03;;;8.30;;
8331;SDS011;4203;48.144;14.118;2022-09-13T04:39:40;15.85;;;9.20;;
8331;SDS011;4203;48.144;14.118;2022-09-13T04:42:08;15.20;;;9.43;;
8331;SDS011;4203;48.144;14.118;2022-09-13T04:44:35;14.25;;;9.20;;
8331;SDS011;4203;48.144;14.118;2022-09-13T04:47:02;14.45;;;8.63;;
8331;SDS011;4203;48.144;14.118;2022-09-13T04:49:30;10.77;;;9.35;;
8331;SDS011;4203;48.144;14.118;2022-09-13T04:51:58;16.73;;;10.35;;
8331;SDS011;4203;48.144;14.118;2022-09-13T04:54:25;23.63;;;10.27;;
8331;SDS011;4203;48.144;14.118;2022-09-13T04:56:53;26.98;;;10.95;;
8331;SDS011;4203;48.144;14.118;2022-09-13T04:59:20;22.27;;;8.60;;
8331;SDS011;4203;48.144;14.118;2022-09-13T05:01:48;31.80;;;9.65;;
8331;SDS011;4203;48.144;14.118;2022-09-13T05:04:15;24.60;;;9.10;;
8331;SDS011;4203;48.144;14.118;2022-09-13T05:06:43;26.60;;;8.98;;
8331;SDS011;4203;48.144;14.118;2022-09-13T05:09:12;36.40;;;10.38;;
8331;SDS011;4203;48.144;14.118;2022-09-13T05:11:40;36.50;;;10.52;;
8331;SDS011;4203;48.144;14.118;2022-09-13T05:14:09;44.42;;;10.82;;
8331;SDS011;4203;48.144;14.118;2022-09-13T05:16:37;37.33;;;10.95;;
8331;SDS011;4203;48.144;14.118;2022-09-13T05:19:04;34.03;;;10.88;;
8331;SDS011;4203;48.144;14.118;2022-09-13T05:21:32;19.55;;;10.48;;
8331;SDS011;4203;48.144;14.118;2022-09-13T05:23:59;18.20;;;10.07;;
8331;SDS011;4203;48.144;14.118;2022-09-13T05:26:27;33.25;;;11.52;;
8331;SDS011;4203;48.144;14.118;2022-09-13T05:28:56;30.80;;;10.38;;
8331;SDS011;4203;48.144;14.118;2022-09-13T05:31:25;36.78;;;11.82;;
8331;SDS011;4203;48.144;14.118;2022-09-13T05:33:56;34.20;;;11.30;;
8331;SDS011;4203;48.144;14.118;2022-09-13T05:36:24;12.25;;;10.70;;
8331;SDS011;4203;48.144;14.118;2022-09-13T05:38:52;32.88;;;12.77;;
8331;SDS011;4203;48.144;14.118;2022-09-13T05:41:20;29.05;;;10.93;;
8331;SDS011;4203;48.144;14.118;2022-09-13T05:43:47;15.77;;;10.95;;
8331;SDS011;4203;48.144;14.118;2022-09-13T05:46:15;13.45;;;11.07;;
8331;SDS011;4203;48.144;14.118;2022-09-13T05:48:45;21.52;;;10.85;;
8331;SDS011;4203;48.144;14.118;2022-09-13T05:51:14;17.60;;;12.10;;
8331;SDS011;4203;48.144;14.118;2022-09-13T05:53:43;15.50;;;11.95;;
8331;SDS011;4203;48.144;14.118;2022-09-13T05:56:12;12.25;;;11.05;;
8331;SDS011;4203;48.144;14.118;2022-09-13T05:58:41;14.18;;;11.85;;
8331;SDS011;4203;48.144;14.118;2022-09-13T06:01:09;18.42;;;11.57;;
8331;SDS011;4203;48.144;14.118;2022-09-13T06:03:37;16.38;;;11.65;;
8331;SDS011;4203;48.144;14.118;2022-09-13T06:06:06;17.02;;;10.93;;
8331;SDS011;4203;48.144;14.118;2022-09-13T06:08:34;11.63;;;10.52;;
8331;SDS011;4203;48.144;14.118;2022-09-13T06:11:02;12.63;;;10.05;;
8331;SDS011;4203;48.144;14.118;2022-09-13T06:13:30;12.40;;;11.30;;
8331;SDS011;4203;48.144;14.118;2022-09-13T06:15:59;12.82;;;11.63;;
8331;SDS011;4203;48.144;14.118;2022-09-13T06:18:27;15.55;;;12.10;;
8331;SDS011;4203;48.144;14.118;2022-09-13T06:20:58;13.18;;;11.82;;
8331;SDS011;4203;48.144;14.118;2022-09-13T06:23:28;12.20;;;11.00;;
8331;SDS011;4203;48.144;14.118;2022-09-13T06:25:59;11.05;;;10.07;;
8331;SDS011;4203;48.144;14.118;2022-09-13T06:28:27;11.70;;;10.15;;
8331;SDS011;4203;48.144;14.118;2022-09-13T06:30:58;14.73;;;11.07;;
8331;SDS011;4203;48.144;14.118;2022-09-13T06:33:26;10.70;;;9.80;;
8331;SDS011;4203;48.144;14.118;2022-09-13T06:35:53;17.60;;;9.98;;
8331;SDS011;4203;48.144;14.118;2022-09-13T06:38:21;11.48;;;10.48;;
8331;SDS011;4203;48.144;14.118;2022-09-13T06:40:57;32.42;;;10.90;;
8331;SDS011;4203;48.144;14.118;2022-09-13T06:43:25;11.13;;;9.50;;
8331;SDS011;4203;48.144;14.118;2022-09-13T06:45:52;12.52;;;8.85;;
8331;SDS011;4203;48.144;14.118;2022-09-13T06:48:19;9.48;;;8.68;;
8331;SDS011;4203;48.144;14.118;2022-09-13T06:50:46;21.02;;;9.38;;
8331;SDS011;4203;48.144;14.118;2022-09-13T06:53:14;9.63;;;8.82;;
8331;SDS011;4203;48.144;14.118;2022-09-13T06:55:41;21.70;;;9.45;;
8331;SDS011;4203;48.144;14.118;2022-09-13T06:58:09;9.25;;;8.45;;
8331;SDS011;4203;48.144;14.118;2022-09-13T07:00:36;9.75;;;7.72;;
8331;SDS011;4203;48.144;14.118;2022-09-13T07:03:03;9.30;;;8.40;;
8331;SDS011;4203;48.144;14.118;2022-09-13T07:05:31;9.55;;;8.55;;
8331;SDS011;4203;48.144;14.118;2022-09-13T07:07:58;9.32;;;8.43;;
8331;SDS011;4203;48.144;14.118;2022-09-13T07:10:25;8.77;;;7.95;;
8331;SDS011;4203;48.144;14.118;2022-09-13T07:12:52;8.68;;;7.90;;
8331;SDS011;4203;48.144;14.118;2022-09-13T07:15:21;13.63;;;8.45;;
8331;SDS011;4203;48.144;14.118;2022-09-13T07:17:48;9.13;;;8.10;;
8331;SDS011;4203;48.144;14.118;2022-09-13T07:20:15;11.27;;;7.80;;
8331;SDS011;4203;48.144;14.118;2022-09-13T07:22:42;9.38;;;7.38;;
8331;SDS011;4203;48.144;14.118;2022-09-13T07:25:09;9.07;;;8.13;;
8331;SDS011;4203;48.144;14.118;2022-09-13T07:27:37;8.00;;;7.30;;
8331;SDS011;4203;48.144;14.118;2022-09-13T07:30:05;7.43;;;6.72;;
8331;SDS011;4203;48.144;14.118;2022-09-13T07:32:34;7.10;;;6.60;;
8331;SDS011;4203;48.144;14.118;2022-09-13T07:35:01;7.63;;;6.93;;
8331;SDS011;4203;48.144;14.118;2022-09-13T07:37:30;7.18;;;6.50;;
8331;SDS011;4203;48.144;14.118;2022-09-13T07:39:58;7.35;;;6.85;;
8331;SDS011;4203;48.144;14.118;2022-09-13T07:42:25;9.13;;;8.23;;
8331;SDS011;4203;48.144;14.118;2022-09-13T07:44:52;8.95;;;8.05;;
8331;SDS011;4203;48.144;14.118;2022-09-13T07:47:19;8.02;;;7.43;;
8331;SDS011;4203;48.144;14.118;2022-09-13T07:49:48;7.80;;;7.18;;
8331;SDS011;4203;48.144;14.118;2022-09-13T07:52:15;8.63;;;7.82;;
8331;SDS011;4203;48.144;14.118;2022-09-13T07:54:42;9.60;;;8.70;;
8331;SDS011;4203;48.144;14.118;2022-09-13T07:57:11;8.57;;;7.78;;
8331;SDS011;4203;48.144;14.118;2022-09-13T07:59:40;11.48;;;9.10;;
8331;SDS011;4203;48.144;14.118;2022-09-13T08:02:08;9.43;;;8.63;;
8331;SDS011;4203;48.144;14.118;2022-09-13T08:04:35;9.35;;;8.45;;
8331;SDS011;4203;48.144;14.118;2022-09-13T08:07:04;8.90;;;8.20;;
8331;SDS011;4203;48.144;14.118;2022-09-13T08:09:31;9.85;;;9.05;;
8331;SDS011;4203;48.144;14.118;2022-09-13T08:11:58;9.73;;;8.82;;
8331;SDS011;4203;48.144;14.118;2022-09-13T08:14:25;10.63;;;9.32;;
8331;SDS011;4203;48.144;14.118;2022-09-13T08:16:53;10.20;;;9.30;;
8331;SDS011;4203;48.144;14.118;2022-09-13T08:19:21;10.10;;;9.27;;
8331;SDS011;4203;48.144;14.118;2022-09-13T08:21:48;9.07;;;8.27;;
8331;SDS011;4203;48.144;14.118;2022-09-13T08:24:17;9.57;;;8.77;;
8331;SDS011;4203;48.144;14.118;2022-09-13T08:26:45;10.57;;;9.68;;
8331;SDS011;4203;48.144;14.118;2022-09-13T08:29:13;10.77;;;9.52;;
8331;SDS011;4203;48.144;14.118;2022-09-13T08:31:41;10.35;;;9.45;;
8331;SDS011;4203;48.144;14.118;2022-09-13T08:34:09;10.65;;;9.65;;
8331;SDS011;4203;48.144;14.118;2022-09-13T08:36:38;10.57;;;9.68;;
8331;SDS011;4203;48.144;14.118;2022-09-13T08:39:06;9.63;;;8.82;;
8331;SDS011;4203;48.144;14.118;2022-09-13T08:44:29;10.32;;;9.48;;
8331;SDS011;4203;48.144;14.118;2022-09-13T08:47:02;10.50;;;9.70;;
8331;SDS011;4203;48.144;14.118;2022-09-13T08:49:40;9.85;;;8.95;;
8331;SDS011;4203;48.144;14.118;2022-09-13T08:52:19;10.00;;;9.10;;
8331;SDS011;4203;48.144;14.118;2022-09-13T08:54:54;9.68;;;8.93;;
8331;SDS011;4203;48.144;14.118;2022-09-13T08:57:25;9.57;;;8.68;;
8331;SDS011;4203;48.144;14.118;2022-09-13T08:59:59;9.27;;;8.52;;
8331;SDS011;4203;48.144;14.118;2022-09-13T09:02:45;8.55;;;7.63;;
8331;SDS011;4203;48.144;14.118;2022-09-13T09:05:21;8.65;;;8.05;;
8331;SDS011;4203;48.144;14.118;2022-09-13T09:07:50;8.40;;;7.70;;
8331;SDS011;4203;48.144;14.118;2022-09-13T09:10:22;7.95;;;7.35;;
8331;SDS011;4203;48.144;14.118;2022-09-13T09:12:53;7.40;;;6.75;;
8331;SDS011;4203;48.144;14.118;2022-09-13T09:15:24;7.80;;;6.97;;
8331;SDS011;4203;48.144;14.118;2022-09-13T09:17:54;7.97;;;7.38;;
8331;SDS011;4203;48.144;14.118;2022-09-13T09:20:27;7.22;;;6.50;;
8331;SDS011;4203;48.144;14.118;2022-09-13T09:22:58;7.18;;;6.47;;
8331;SDS011;4203;48.144;14.118;2022-09-13T09:25:28;6.47;;;5.97;;
8331;SDS011;4203;48.144;14.118;2022-09-13T09:27:58;6.97;;;6.38;;
8331;SDS011;4203;48.144;14.118;2022-09-13T09:30:29;5.85;;;5.35;;
8331;SDS011;4203;48.144;14.118;2022-09-13T09:33:12;5.45;;;5.00;;
8331;SDS011;4203;48.144;14.118;2022-09-13T09:35:53;5.60;;;5.13;;
8331;SDS011;4203;48.144;14.118;2022-09-13T09:38:34;6.20;;;5.70;;
8331;SDS011;4203;48.144;14.118;2022-09-13T09:41:05;4.80;;;4.40;;
8331;SDS011;4203;48.144;14.118;2022-09-13T09:43:47;6.40;;;4.47;;
8331;SDS011;4203;48.144;14.118;2022-09-13T09:46:20;4.80;;;4.40;;
8331;SDS011;4203;48.144;14.118;2022-09-13T09:48:54;5.22;;;4.88;;
8331;SDS011;4203;48.144;14.118;2022-09-13T09:51:26;5.03;;;4.72;;
8331;SDS011;4203;48.144;14.118;2022-09-13T09:53:56;5.40;;;5.00;;
8331;SDS011;4203;48.144;14.118;2022-09-13T09:56:30;4.88;;;4.45;;
8331;SDS011;4203;48.144;14.118;2022-09-13T09:59:00;4.85;;;4.45;;
8331;SDS011;4203;48.144;14.118;2022-09-13T10:01:28;5.40;;;5.00;;
8331;SDS011;4203;48.144;14.118;2022-09-13T10:04:00;4.32;;;4.03;;
8331;SDS011;4203;48.144;14.118;2022-09-13T10:06:32;4.45;;;4.18;;
8331;SDS011;4203;48.144;14.118;2022-09-13T10:09:02;4.00;;;3.78;;
8331;SDS011;4203;48.144;14.118;2022-09-13T10:11:41;4.55;;;4.13;;
8331;SDS011;4203;48.144;14.118;2022-09-13T10:17:04;4.25;;;3.90;;
8331;SDS011;4203;48.144;14.118;2022-09-13T10:19:40;3.92;;;3.72;;
8331;SDS011;4203;48.144;14.118;2022-09-13T10:22:16;4.25;;;3.85;;
8331;SDS011;4203;48.144;14.118;2022-09-13T10:24:44;5.55;;;4.25;;
8331;SDS011;4203;48.144;14.118;2022-09-13T10:27:18;4.32;;;4.03;;
8331;SDS011;4203;48.144;14.118;2022-09-13T10:29:52;5.10;;;4.70;;
8331;SDS011;4203;48.144;14.118;2022-09-13T10:32:25;4.15;;;3.95;;
8331;SDS011;4203;48.144;14.118;2022-09-13T10:34:53;4.10;;;3.90;;
8331;SDS011;4203;48.144;14.118;2022-09-13T10:37:23;4.47;;;4.07;;
8331;SDS011;4203;48.144;14.118;2022-09-13T10:39:58;4.55;;;4.25;;
8331;SDS011;4203;48.144;14.118;2022-09-13T10:42:31;5.07;;;4.68;;
8331;SDS011;4203;48.144;14.118;2022-09-13T10:44:58;4.75;;;4.45;;
8331;SDS011;4203;48.144;14.118;2022-09-13T10:47:31;4.90;;;4.50;;
8331;SDS011;4203;48.144;14.118;2022-09-13T10:50:17;4.05;;;3.75;;
8331;SDS011;4203;48.144;14.118;2022-09-13T10:52:46;4.03;;;3.83;;
8331;SDS011;4203;48.144;14.118;2022-09-13T10:55:21;4.07;;;3.78;;
8331;SDS011;4203;48.144;14.118;2022-09-13T10:58:10;4.50;;;4.20;;
8331;SDS011;4203;48.144;14.118;2022-09-13T11:00:46;3.78;;;3.58;;
8331;SDS011;4203;48.144;14.118;2022-09-13T11:03:45;3.63;;;3.42;;
8331;SDS011;4203;48.144;14.118;2022-09-13T11:06:44;3.80;;;3.60;;
8331;SDS011;4203;48.144;14.118;2022-09-13T11:09:20;3.42;;;3.15;;
8331;SDS011;4203;48.144;14.118;2022-09-13T11:11:59;3.20;;;3.00;;
8331;SDS011;4203;48.144;14.118;2022-09-13T11:14:45;3.75;;;3.55;;
8331;SDS011;4203;48.144;14.118;2022-09-13T11:17:22;6.07;;;3.30;;
8331;SDS011;4203;48.144;14.118;2022-09-13T11:20:16;3.53;;;3.22;;
8331;SDS011;4203;48.144;14.118;2022-09-13T11:23:04;3.10;;;3.00;;
8331;SDS011;4203;48.144;14.118;2022-09-13T11:25:52;3.95;;;3.75;;
8331;SDS011;4203;48.144;14.118;2022-09-13T11:28:25;3.13;;;2.92;;
8331;SDS011;4203;48.144;14.118;2022-09-13T11:31:12;3.22;;;3.13;;
8331;SDS011;4203;48.144;14.118;2022-09-13T11:33:55;3.28;;;2.97;;
8331;SDS011;4203;48.144;14.118;2022-09-13T11:36:47;2.90;;;2.80;;
8331;SDS011;4203;48.144;14.118;2022-09-13T11:39:24;3.00;;;2.80;;
8331;SDS011;4203;48.144;14.118;2022-09-13T11:41:59;4.68;;;2.95;;
8331;SDS011;4203;48.144;14.118;2022-09-13T11:47:41;2.92;;;2.72;;
8331;SDS011;4203;48.144;14.118;2022-09-13T11:50:28;2.90;;;2.80;;
8331;SDS011;4203;48.144;14.118;2022-09-13T11:53:13;3.28;;;2.97;;
8331;SDS011;4203;48.144;14.118;2022-09-13T11:55:59;3.17;;;2.90;;
8331;SDS011;4203;48.144;14.118;2022-09-13T11:58:30;3.65;;;2.60;;
8331;SDS011;4203;48.144;14.118;2022-09-13T12:01:01;3.10;;;2.80;;
8331;SDS011;4203;48.144;14.118;2022-09-13T12:03:33;3.42;;;3.13;;
8331;SDS011;4203;48.144;14.118;2022-09-13T12:06:07;2.63;;;2.45;;
8331;SDS011;4203;48.144;14.118;2022-09-13T12:08:41;3.13;;;2.80;;
8331;SDS011;4203;48.144;14.118;2022-09-13T12:11:14;2.97;;;2.78;;
8331;SDS011;4203;48.144;14.118;2022-09-13T12:13:47;2.83;;;2.72;;
8331;SDS011;4203;48.144;14.118;2022-09-13T12:16:19;3.80;;;2.90;;
8331;SDS011;4203;48.144;14.118;2022-09-13T12:18:52;2.60;;;2.40;;
8331;SDS011;4203;48.144;14.118;2022-09-13T12:21:23;2.88;;;2.67;;
8331;SDS011;4203;48.144;14.118;2022-09-13T12:23:55;3.05;;;2.78;;
8331;SDS011;4203;48.144;14.118;2022-09-13T12:26:29;2.80;;;2.60;;
8331;SDS011;4203;48.144;14.118;2022-09-13T12:29:01;2.60;;;2.50;;
8331;SDS011;4203;48.144;14.118;2022-09-13T12:31:33;2.58;;;2.40;;
8331;SDS011;4203;48.144;14.118;2022-09-13T12:34:00;2.60;;;2.20;;
8331;SDS011;4203;48.144;14.118;2022-09-13T12:39:41;2.40;;;2.15;;
8331;SDS011;4203;48.144;14.118;2022-09-13T12:45:31;2.80;;;2.70;;
8331;SDS011;4203;48.144;14.118;2022-09-13T12:48:18;4.80;;;2.80;;
8331;SDS011;4203;48.144;14.118;2022-09-13T12:51:19;2.83;;;2.67;;
8331;SDS011;4203;48.144;14.118;2022-09-13T12:54:05;2.53;;;2.42;;
8331;SDS011;4203;48.144;14.118;2022-09-13T12:56:59;2.65;;;2.55;;
8331;SDS011;4203;48.144;14.118;2022-09-13T12:59:50;2.53;;;2.40;;
8331;SDS011;4203;48.144;14.118;2022-09-13T13:02:35;3.03;;;2.58;;
8331;SDS011;4203;48.144;14.118;2022-09-13T13:05:05;3.13;;;2.70;;
8331;SDS011;4203;48.144;14.118;2022-09-13T13:07:49;4.25;;;2.58;;
8331;SDS011;4203;48.144;14.118;2022-09-13T13:10:23;2.70;;;2.60;;
8331;SDS011;4203;48.144;14.118;2022-09-13T13:12:53;2.40;;;2.30;;
8331;SDS011;4203;48.144;14.118;2022-09-13T13:18:22;2.83;;;2.63;;
8331;SDS011;4203;48.144;14.118;2022-09-13T13:26:57;3.20;;;2.90;;
8331;SDS011;4203;48.144;14.118;2022-09-13T13:29:26;2.80;;;2.60;;
8331;SDS011;4203;48.144;14.118;2022-09-13T13:32:04;2.78;;;2.67;;
8331;SDS011;4203;48.144;14.118;2022-09-13T13:34:38;3.17;;;2.40;;
8331;SDS011;4203;48.144;14.118;2022-09-13T13:48:56;2.85;;;2.65;;
8331;SDS011;4203;48.144;14.118;2022-09-13T13:55:22;3.47;;;3.08;;
8331;SDS011;4203;48.144;14.118;2022-09-13T13:58:07;7.68;;;3.85;;
8331;SDS011;4203;48.144;14.118;2022-09-13T14:00:47;5.53;;;3.05;;
8331;SDS011;4203;48.144;14.118;2022-09-13T14:03:22;3.38;;;2.75;;
8331;SDS011;4203;48.144;14.118;2022-09-13T14:06:00;2.67;;;2.47;;
8331;SDS011;4203;48.144;14.118;2022-09-13T14:08:37;4.63;;;2.80;;
8331;SDS011;4203;48.144;14.118;2022-09-13T14:11:21;2.88;;;2.63;;
8331;SDS011;4203;48.144;14.118;2022-09-13T14:14:02;5.25;;;2.88;;
8331;SDS011;4203;48.144;14.118;2022-09-13T14:16:58;2.80;;;2.60;;
8331;SDS011;4203;48.144;14.118;2022-09-13T14:19:58;3.03;;;2.78;;
8331;SDS011;4203;48.144;14.118;2022-09-13T14:22:29;3.08;;;2.63;;
8331;SDS011;4203;48.144;14.118;2022-09-13T14:24:57;12.13;;;2.88;;
8331;SDS011;4203;48.144;14.118;2022-09-13T14:27:38;4.15;;;2.80;;
8331;SDS011;4203;48.144;14.118;2022-09-13T14:30:16;3.67;;;3.00;;
8331;SDS011;4203;48.144;14.118;2022-09-13T14:32:45;2.83;;;2.70;;
8331;SDS011;4203;48.144;14.118;2022-09-13T14:35:22;3.72;;;3.03;;
8331;SDS011;4203;48.144;14.118;2022-09-13T14:37:51;4.57;;;2.95;;
8331;SDS011;4203;48.144;14.118;2022-09-13T14:40:20;3.30;;;3.10;;
8331;SDS011;4203;48.144;14.118;2022-09-13T14:42:50;3.15;;;2.78;;
8331;SDS011;4203;48.144;14.118;2022-09-13T14:45:19;3.35;;;2.70;;
8331;SDS011;4203;48.144;14.118;2022-09-13T14:47:50;3.20;;;3.00;;
8331;SDS011;4203;48.144;14.118;2022-09-13T14:50:23;2.92;;;2.70;;
8331;SDS011;4203;48.144;14.118;2022-09-13T14:52:52;3.45;;;2.75;;
8331;SDS011;4203;48.144;14.118;2022-09-13T14:55:23;5.45;;;3.10;;
8331;SDS011;4203;48.144;14.118;2022-09-13T14:57:54;3.70;;;2.88;;
8331;SDS011;4203;48.144;14.118;2022-09-13T15:00:27;4.95;;;2.55;;
8331;SDS011;4203;48.144;14.118;2022-09-13T15:02:56;3.10;;;2.90;;
8331;SDS011;4203;48.144;14.118;2022-09-13T15:05:28;2.85;;;2.65;;
8331;SDS011;4203;48.144;14.118;2022-09-13T15:07:57;3.10;;;2.88;;
8331;SDS011;4203;48.144;14.118;2022-09-13T15:10:26;3.47;;;3.17;;
8331;SDS011;4203;48.144;14.118;2022-09-13T15:13:01;4.15;;;3.33;;
8331;SDS011;4203;48.144;14.118;2022-09-13T15:15:34;3.17;;;2.88;;
8331;SDS011;4203;48.144;14.118;2022-09-13T15:18:03;3.08;;;2.88;;
8331;SDS011;4203;48.144;14.118;2022-09-13T15:20:47;3.50;;;3.30;;
8331;SDS011;4203;48.144;14.118;2022-09-13T15:23:16;3.40;;;3.20;;
8331;SDS011;4203;48.144;14.118;2022-09-13T15:25:47;3.88;;;3.30;;
8331;SDS011;4203;48.144;14.118;2022-09-13T15:28:20;3.55;;;3.30;;
8331;SDS011;4203;48.144;14.118;2022-09-13T15:30:49;3.80;;;3.50;;
8331;SDS011;4203;48.144;14.118;2022-09-13T15:33:21;4.50;;;3.10;;
8331;SDS011;4203;48.144;14.118;2022-09-13T15:35:51;3.33;;;3.03;;
8331;SDS011;4203;48.144;14.118;2022-09-13T15:38:57;3.20;;;3.10;;
8331;SDS011;4203;48.144;14.118;2022-09-13T15:41:29;3.55;;;3.25;;
8331;SDS011;4203;48.144;14.118;2022-09-13T15:43:58;3.58;;;3.30;;
8331;SDS011;4203;48.144;14.118;2022-09-13T15:46:26;3.35;;;3.10;;
8331;SDS011;4203;48.144;14.118;2022-09-13T15:48:54;3.60;;;3.30;;
8331;SDS011;4203;48.144;14.118;2022-09-13T15:51:25;3.10;;;2.90;;
8331;SDS011;4203;48.144;14.118;2022-09-13T15:53:52;3.65;;;3.35;;
8331;SDS011;4203;48.144;14.118;2022-09-13T15:56:21;3.50;;;3.20;;
8331;SDS011;4203;48.144;14.118;2022-09-13T15:58:53;3.90;;;3.38;;
8331;SDS011;4203;48.144;14.118;2022-09-13T16:01:20;3.53;;;3.33;;
8331;SDS011;4203;48.144;14.118;2022-09-13T16:03:47;3.85;;;3.40;;
8331;SDS011;4203;48.144;14.118;2022-09-13T16:06:14;4.50;;;3.60;;
8331;SDS011;4203;48.144;14.118;2022-09-13T16:08:43;4.15;;;3.72;;
8331;SDS011;4203;48.144;14.118;2022-09-13T16:11:10;3.63;;;3.33;;
8331;SDS011;4203;48.144;14.118;2022-09-13T16:13:37;4.70;;;3.42;;
8331;SDS011;4203;48.144;14.118;2022-09-13T16:16:04;3.60;;;3.40;;
8331;SDS011;4203;48.144;14.118;2022-09-13T16:18:32;18.20;;;5.10;;